sensor_id;sensor_type;location;lat;lon;timestamp;temperature;humidity
19206;DHT22;59358;52.134;5.596;2022-08-01T00:01:35;19.50;99.90
19206;DHT22;59358;52.134;5.596;2022-08-01T00:04:03;19.40;99.90
19206;DHT22;59358;52.134;5.596;2022-08-01T00:06:30;19.40;99.90
19206;DHT22;59358;52.134;5.596;2022-08-01T00:08:56;19.50;99.90
19206;DHT22;59358;52.134;5.596;2022-08-01T00:11:23;19.50;99.90
19206;DHT22;59358;52.134;5.596;2022-08-01T00:13:50;19.50;99.90
19206;DHT22;59358;52.134;5.596;2022-08-01T00:16:17;19.50;99.90
19206;DHT22;59358;52.134;5.596;2022-08-01T00:18:45;19.50;99.90
19206;DHT22;59358;52.134;5.596;2022-08-01T00:21:12;19.40;99.90
19206;DHT22;59358;52.134;5.596;2022-08-01T00:23:39;19.40;99.90
19206;DHT22;59358;52.134;5.596;2022-08-01T00:26:06;19.40;99.90
19206;DHT22;59358;52.134;5.596;2022-08-01T00:28:33;19.40;99.90
19206;DHT22;59358;52.134;5.596;2022-08-01T00:31:00;19.40;99.90
19206;DHT22;59358;52.134;5.596;2022-08-01T00:33:26;19.30;99.90
19206;DHT22;59358;52.134;5.596;2022-08-01T00:35:54;19.40;99.90
19206;DHT22;59358;52.134;5.596;2022-08-01T00:38:21;19.40;99.90
19206;DHT22;59358;52.134;5.596;2022-08-01T00:40:49;19.40;99.90
19206;DHT22;59358;52.134;5.596;2022-08-01T00:43:16;19.30;99.90
19206;DHT22;59358;52.134;5.596;2022-08-01T00:45:43;19.20;99.90
19206;DHT22;59358;52.134;5.596;2022-08-01T00:48:10;19.10;99.90
19206;DHT22;59358;52.134;5.596;2022-08-01T00:50:36;19.10;99.90
19206;DHT22;59358;52.134;5.596;2022-08-01T00:53:06;19.00;99.90
19206;DHT22;59358;52.134;5.596;2022-08-01T00:55:33;19.10;99.90
19206;DHT22;59358;52.134;5.596;2022-08-01T00:58:01;19.00;99.90
19206;DHT22;59358;52.134;5.596;2022-08-01T01:00:28;19.10;99.90
19206;DHT22;59358;52.134;5.596;2022-08-01T01:02:54;19.00;99.90
19206;DHT22;59358;52.134;5.596;2022-08-01T01:05:21;19.10;99.90
19206;DHT22;59358;52.134;5.596;2022-08-01T01:07:53;19.10;99.90
19206;DHT22;59358;52.134;5.596;2022-08-01T01:10:25;19.10;99.90
19206;DHT22;59358;52.134;5.596;2022-08-01T01:13:00;19.10;99.90
19206;DHT22;59358;52.134;5.596;2022-08-01T01:15:30;19.00;99.90
19206;DHT22;59358;52.134;5.596;2022-08-01T01:18:03;19.00;99.90
19206;DHT22;59358;52.134;5.596;2022-08-01T01:20:33;19.00;99.90
19206;DHT22;59358;52.134;5.596;2022-08-01T01:23:12;18.90;99.90
19206;DHT22;59358;52.134;5.596;2022-08-01T01:26:04;18.90;99.90
19206;DHT22;59358;52.134;5.596;2022-08-01T01:28:49;18.90;99.90
19206;DHT22;59358;52.134;5.596;2022-08-01T01:31:19;18.90;99.90
19206;DHT22;59358;52.134;5.596;2022-08-01T01:33:48;18.90;99.90
19206;DHT22;59358;52.134;5.596;2022-08-01T01:36:16;18.80;99.90
19206;DHT22;59358;52.134;5.596;2022-08-01T01:38:45;18.80;99.90
19206;DHT22;59358;52.134;5.596;2022-08-01T01:41:15;18.80;99.90
19206;DHT22;59358;52.134;5.596;2022-08-01T01:43:42;18.80;99.90
19206;DHT22;59358;52.134;5.596;2022-08-01T01:46:12;18.80;99.90
19206;DHT22;59358;52.134;5.596;2022-08-01T01:48:43;18.80;99.90
19206;DHT22;59358;52.134;5.596;2022-08-01T01:51:12;18.80;99.90
19206;DHT22;59358;52.134;5.596;2022-08-01T01:53:40;18.80;99.90
19206;DHT22;59358;52.134;5.596;2022-08-01T01:56:09;18.90;99.90
19206;DHT22;59358;52.134;5.596;2022-08-01T01:58:38;18.90;99.90
19206;DHT22;59358;52.134;5.596;2022-08-01T02:01:06;18.80;99.90
19206;DHT22;59358;52.134;5.596;2022-08-01T02:03:35;18.80;99.90
19206;DHT22;59358;52.134;5.596;2022-08-01T02:06:03;18.80;99.90
19206;DHT22;59358;52.134;5.596;2022-08-01T02:08:31;18.80;99.90
19206;DHT22;59358;52.134;5.596;2022-08-01T02:10:59;18.80;99.90
19206;DHT22;59358;52.134;5.596;2022-08-01T02:13:51;18.80;99.90
19206;DHT22;59358;52.134;5.596;2022-08-01T02:16:19;18.80;99.90
19206;DHT22;59358;52.134;5.596;2022-08-01T02:18:48;18.80;99.90
19206;DHT22;59358;52.134;5.596;2022-08-01T02:21:19;18.80;99.90
19206;DHT22;59358;52.134;5.596;2022-08-01T02:23:47;18.80;99.90
19206;DHT22;59358;52.134;5.596;2022-08-01T02:26:16;18.70;99.90
19206;DHT22;59358;52.134;5.596;2022-08-01T02:28:49;18.80;99.90
19206;DHT22;59358;52.134;5.596;2022-08-01T02:31:19;18.80;99.90
19206;DHT22;59358;52.134;5.596;2022-08-01T02:33:53;18.70;99.90
19206;DHT22;59358;52.134;5.596;2022-08-01T02:36:23;18.70;99.90
19206;DHT22;59358;52.134;5.596;2022-08-01T02:38:52;18.70;99.90
19206;DHT22;59358;52.134;5.596;2022-08-01T02:41:22;18.70;99.90
19206;DHT22;59358;52.134;5.596;2022-08-01T02:43:52;18.60;99.90
19206;DHT22;59358;52.134;5.596;2022-08-01T02:46:23;18.60;99.90
19206;DHT22;59358;52.134;5.596;2022-08-01T02:48:53;18.60;99.90
19206;DHT22;59358;52.134;5.596;2022-08-01T02:51:23;18.60;99.90
19206;DHT22;59358;52.134;5.596;2022-08-01T02:53:52;18.60;99.90
19206;DHT22;59358;52.134;5.596;2022-08-01T02:56:21;18.60;99.90
19206;DHT22;59358;52.134;5.596;2022-08-01T02:58:50;18.60;99.90
19206;DHT22;59358;52.134;5.596;2022-08-01T03:01:17;18.60;99.90
19206;DHT22;59358;52.134;5.596;2022-08-01T03:03:45;18.50;99.90
19206;DHT22;59358;52.134;5.596;2022-08-01T03:06:14;18.50;99.90
19206;DHT22;59358;52.134;5.596;2022-08-01T03:08:42;18.50;99.90
19206;DHT22;59358;52.134;5.596;2022-08-01T03:11:10;18.60;99.90
19206;DHT22;59358;52.134;5.596;2022-08-01T03:13:39;18.70;99.90
19206;DHT22;59358;52.134;5.596;2022-08-01T03:16:09;18.70;99.90
19206;DHT22;59358;52.134;5.596;2022-08-01T03:18:37;18.70;99.90
19206;DHT22;59358;52.134;5.596;2022-08-01T03:21:05;18.70;99.90
19206;DHT22;59358;52.134;5.596;2022-08-01T03:23:36;18.60;99.90
19206;DHT22;59358;52.134;5.596;2022-08-01T03:26:04;18.50;99.90
19206;DHT22;59358;52.134;5.596;2022-08-01T03:28:31;18.50;99.90
19206;DHT22;59358;52.134;5.596;2022-08-01T03:30:59;18.50;99.90
19206;DHT22;59358;52.134;5.596;2022-08-01T03:33:26;18.50;99.90
19206;DHT22;59358;52.134;5.596;2022-08-01T03:35:54;18.60;99.90
19206;DHT22;59358;52.134;5.596;2022-08-01T03:38:25;18.50;99.90
19206;DHT22;59358;52.134;5.596;2022-08-01T03:40:56;18.50;99.90
19206;DHT22;59358;52.134;5.596;2022-08-01T03:43:30;18.50;99.90
19206;DHT22;59358;52.134;5.596;2022-08-01T03:46:01;18.50;99.90
19206;DHT22;59358;52.134;5.596;2022-08-01T03:48:32;18.40;99.90
19206;DHT22;59358;52.134;5.596;2022-08-01T03:51:01;18.30;99.90
19206;DHT22;59358;52.134;5.596;2022-08-01T03:53:30;18.30;99.90
19206;DHT22;59358;52.134;5.596;2022-08-01T03:56:01;18.40;99.90
19206;DHT22;59358;52.134;5.596;2022-08-01T03:58:29;18.50;99.90
19206;DHT22;59358;52.134;5.596;2022-08-01T04:00:57;18.60;99.90
19206;DHT22;59358;52.134;5.596;2022-08-01T04:03:24;18.70;99.90
19206;DHT22;59358;52.134;5.596;2022-08-01T04:05:51;18.70;99.90
19206;DHT22;59358;52.134;5.596;2022-08-01T04:08:18;18.70;99.90
19206;DHT22;59358;52.134;5.596;2022-08-01T04:10:45;18.70;99.90
19206;DHT22;59358;52.134;5.596;2022-08-01T04:13:13;18.70;99.90
19206;DHT22;59358;52.134;5.596;2022-08-01T04:15:40;18.70;99.90
19206;DHT22;59358;52.134;5.596;2022-08-01T04:18:07;18.80;99.90
19206;DHT22;59358;52.134;5.596;2022-08-01T04:20:33;18.90;99.90
19206;DHT22;59358;52.134;5.596;2022-08-01T04:23:01;18.90;99.90
19206;DHT22;59358;52.134;5.596;2022-08-01T04:25:32;18.90;99.90
19206;DHT22;59358;52.134;5.596;2022-08-01T04:28:00;18.80;99.90
19206;DHT22;59358;52.134;5.596;2022-08-01T04:30:33;18.90;99.90
19206;DHT22;59358;52.134;5.596;2022-08-01T04:33:02;18.80;99.90
19206;DHT22;59358;52.134;5.596;2022-08-01T04:35:32;18.90;99.90
19206;DHT22;59358;52.134;5.596;2022-08-01T04:38:00;19.00;99.90
19206;DHT22;59358;52.134;5.596;2022-08-01T04:40:28;18.90;99.90
19206;DHT22;59358;52.134;5.596;2022-08-01T04:42:55;18.90;99.90
19206;DHT22;59358;52.134;5.596;2022-08-01T04:45:23;18.90;99.90
19206;DHT22;59358;52.134;5.596;2022-08-01T04:47:52;19.00;99.90
19206;DHT22;59358;52.134;5.596;2022-08-01T04:50:19;19.00;99.90
19206;DHT22;59358;52.134;5.596;2022-08-01T04:52:47;18.90;99.90
19206;DHT22;59358;52.134;5.596;2022-08-01T04:55:14;18.90;99.90
19206;DHT22;59358;52.134;5.596;2022-08-01T04:57:43;18.80;99.90
19206;DHT22;59358;52.134;5.596;2022-08-01T05:00:11;18.70;99.90
19206;DHT22;59358;52.134;5.596;2022-08-01T05:02:38;18.70;99.90
19206;DHT22;59358;52.134;5.596;2022-08-01T05:05:08;18.70;99.90
19206;DHT22;59358;52.134;5.596;2022-08-01T05:07:36;18.70;99.90
19206;DHT22;59358;52.134;5.596;2022-08-01T05:10:03;18.80;99.90
19206;DHT22;59358;52.134;5.596;2022-08-01T05:12:30;18.80;99.90
19206;DHT22;59358;52.134;5.596;2022-08-01T05:14:58;18.90;99.90
19206;DHT22;59358;52.134;5.596;2022-08-01T05:17:25;18.90;99.90
19206;DHT22;59358;52.134;5.596;2022-08-01T05:19:52;18.90;99.90
19206;DHT22;59358;52.134;5.596;2022-08-01T05:22:20;18.90;99.90
19206;DHT22;59358;52.134;5.596;2022-08-01T05:24:47;18.90;99.90
19206;DHT22;59358;52.134;5.596;2022-08-01T05:27:14;18.90;99.90
19206;DHT22;59358;52.134;5.596;2022-08-01T05:29:41;18.90;99.90
19206;DHT22;59358;52.134;5.596;2022-08-01T05:32:08;18.90;99.90
19206;DHT22;59358;52.134;5.596;2022-08-01T05:34:35;19.10;99.90
19206;DHT22;59358;52.134;5.596;2022-08-01T05:37:02;19.00;99.90
19206;DHT22;59358;52.134;5.596;2022-08-01T05:39:30;19.10;99.90
19206;DHT22;59358;52.134;5.596;2022-08-01T05:41:57;19.20;99.90
19206;DHT22;59358;52.134;5.596;2022-08-01T05:44:26;19.30;99.90
19206;DHT22;59358;52.134;5.596;2022-08-01T05:46:57;19.30;99.90
19206;DHT22;59358;52.134;5.596;2022-08-01T05:49:24;19.40;99.90
19206;DHT22;59358;52.134;5.596;2022-08-01T05:51:51;19.50;99.90
19206;DHT22;59358;52.134;5.596;2022-08-01T05:54:18;19.30;99.90
19206;DHT22;59358;52.134;5.596;2022-08-01T05:56:46;19.30;99.90
19206;DHT22;59358;52.134;5.596;2022-08-01T05:59:12;19.40;99.90
19206;DHT22;59358;52.134;5.596;2022-08-01T06:01:39;19.50;99.90
19206;DHT22;59358;52.134;5.596;2022-08-01T06:04:06;19.50;99.90
19206;DHT22;59358;52.134;5.596;2022-08-01T06:06:33;19.40;99.90
19206;DHT22;59358;52.134;5.596;2022-08-01T06:08:59;19.20;99.90
19206;DHT22;59358;52.134;5.596;2022-08-01T06:11:26;19.30;99.90
19206;DHT22;59358;52.134;5.596;2022-08-01T06:13:54;19.20;99.90
19206;DHT22;59358;52.134;5.596;2022-08-01T06:16:21;19.20;99.90
19206;DHT22;59358;52.134;5.596;2022-08-01T06:18:48;19.20;99.90
19206;DHT22;59358;52.134;5.596;2022-08-01T06:21:15;19.30;99.90
19206;DHT22;59358;52.134;5.596;2022-08-01T06:23:42;19.40;99.90
19206;DHT22;59358;52.134;5.596;2022-08-01T06:26:09;19.30;99.90
19206;DHT22;59358;52.134;5.596;2022-08-01T06:28:36;19.40;99.90
19206;DHT22;59358;52.134;5.596;2022-08-01T06:31:05;19.50;99.90
19206;DHT22;59358;52.134;5.596;2022-08-01T06:33:32;19.60;99.90
19206;DHT22;59358;52.134;5.596;2022-08-01T06:35:58;19.60;99.90
19206;DHT22;59358;52.134;5.596;2022-08-01T06:38:26;19.40;99.90
19206;DHT22;59358;52.134;5.596;2022-08-01T06:40:53;19.60;99.90
19206;DHT22;59358;52.134;5.596;2022-08-01T06:43:20;19.60;99.90
19206;DHT22;59358;52.134;5.596;2022-08-01T06:45:46;19.70;99.90
19206;DHT22;59358;52.134;5.596;2022-08-01T06:48:14;19.70;99.90
19206;DHT22;59358;52.134;5.596;2022-08-01T06:50:41;19.70;99.90
19206;DHT22;59358;52.134;5.596;2022-08-01T06:53:08;19.70;99.90
19206;DHT22;59358;52.134;5.596;2022-08-01T06:55:35;19.80;99.90
19206;DHT22;59358;52.134;5.596;2022-08-01T06:58:02;19.90;99.90
19206;DHT22;59358;52.134;5.596;2022-08-01T07:00:28;19.90;99.90
19206;DHT22;59358;52.134;5.596;2022-08-01T07:02:56;20.00;99.90
19206;DHT22;59358;52.134;5.596;2022-08-01T07:05:25;19.90;99.90
19206;DHT22;59358;52.134;5.596;2022-08-01T07:07:52;20.10;99.90
19206;DHT22;59358;52.134;5.596;2022-08-01T07:10:19;20.10;99.90
19206;DHT22;59358;52.134;5.596;2022-08-01T07:12:45;20.10;99.90
19206;DHT22;59358;52.134;5.596;2022-08-01T07:15:13;20.10;99.90
19206;DHT22;59358;52.134;5.596;2022-08-01T07:17:40;20.10;99.90
19206;DHT22;59358;52.134;5.596;2022-08-01T07:20:10;20.10;99.90
19206;DHT22;59358;52.134;5.596;2022-08-01T07:22:39;20.10;99.90
19206;DHT22;59358;52.134;5.596;2022-08-01T07:25:06;20.10;99.90
19206;DHT22;59358;52.134;5.596;2022-08-01T07:27:33;20.10;99.90
19206;DHT22;59358;52.134;5.596;2022-08-01T07:30:00;20.10;99.90
19206;DHT22;59358;52.134;5.596;2022-08-01T07:32:27;20.10;99.90
19206;DHT22;59358;52.134;5.596;2022-08-01T07:34:55;20.00;99.90
19206;DHT22;59358;52.134;5.596;2022-08-01T07:37:22;19.80;99.90
19206;DHT22;59358;52.134;5.596;2022-08-01T07:39:51;19.70;99.90
19206;DHT22;59358;52.134;5.596;2022-08-01T07:42:18;19.70;99.90
19206;DHT22;59358;52.134;5.596;2022-08-01T07:44:45;19.60;99.90
19206;DHT22;59358;52.134;5.596;2022-08-01T07:47:11;19.60;99.90
19206;DHT22;59358;52.134;5.596;2022-08-01T07:49:38;19.60;99.90
19206;DHT22;59358;52.134;5.596;2022-08-01T07:52:05;19.60;99.90
19206;DHT22;59358;52.134;5.596;2022-08-01T07:54:32;19.60;99.90
19206;DHT22;59358;52.134;5.596;2022-08-01T07:57:00;19.70;99.90
19206;DHT22;59358;52.134;5.596;2022-08-01T07:59:27;19.80;99.90
19206;DHT22;59358;52.134;5.596;2022-08-01T08:01:54;19.90;99.90
19206;DHT22;59358;52.134;5.596;2022-08-01T08:04:21;19.80;99.90
19206;DHT22;59358;52.134;5.596;2022-08-01T08:06:48;19.90;99.90
19206;DHT22;59358;52.134;5.596;2022-08-01T08:09:15;19.80;99.90
19206;DHT22;59358;52.134;5.596;2022-08-01T08:11:42;20.00;99.90
19206;DHT22;59358;52.134;5.596;2022-08-01T08:14:11;20.10;99.90
19206;DHT22;59358;52.134;5.596;2022-08-01T08:16:38;20.30;99.90
19206;DHT22;59358;52.134;5.596;2022-08-01T08:19:05;20.30;99.90
19206;DHT22;59358;52.134;5.596;2022-08-01T08:21:32;20.20;99.90
19206;DHT22;59358;52.134;5.596;2022-08-01T08:23:58;20.20;99.90
19206;DHT22;59358;52.134;5.596;2022-08-01T08:26:42;20.40;99.90
19206;DHT22;59358;52.134;5.596;2022-08-01T08:29:11;20.50;99.90
19206;DHT22;59358;52.134;5.596;2022-08-01T08:31:38;20.50;99.90
19206;DHT22;59358;52.134;5.596;2022-08-01T08:34:05;20.60;99.90
19206;DHT22;59358;52.134;5.596;2022-08-01T08:36:32;20.80;99.90
19206;DHT22;59358;52.134;5.596;2022-08-01T08:38:58;20.90;99.90
19206;DHT22;59358;52.134;5.596;2022-08-01T08:41:26;21.10;99.90
19206;DHT22;59358;52.134;5.596;2022-08-01T08:43:53;21.20;99.90
19206;DHT22;59358;52.134;5.596;2022-08-01T08:46:21;21.10;99.90
19206;DHT22;59358;52.134;5.596;2022-08-01T08:48:50;20.90;99.90
19206;DHT22;59358;52.134;5.596;2022-08-01T08:51:17;20.80;99.90
19206;DHT22;59358;52.134;5.596;2022-08-01T08:53:46;20.80;99.90
19206;DHT22;59358;52.134;5.596;2022-08-01T08:56:14;20.80;99.90
19206;DHT22;59358;52.134;5.596;2022-08-01T08:58:44;20.80;99.90
19206;DHT22;59358;52.134;5.596;2022-08-01T09:01:12;20.80;99.90
19206;DHT22;59358;52.134;5.596;2022-08-01T09:03:40;20.90;99.90
19206;DHT22;59358;52.134;5.596;2022-08-01T09:06:07;21.00;99.90
19206;DHT22;59358;52.134;5.596;2022-08-01T09:08:34;21.20;99.90
19206;DHT22;59358;52.134;5.596;2022-08-01T09:11:01;21.30;99.90
19206;DHT22;59358;52.134;5.596;2022-08-01T09:13:27;21.40;99.90
19206;DHT22;59358;52.134;5.596;2022-08-01T09:15:56;21.50;99.90
19206;DHT22;59358;52.134;5.596;2022-08-01T09:18:29;21.50;99.90
19206;DHT22;59358;52.134;5.596;2022-08-01T09:21:13;21.50;99.90
19206;DHT22;59358;52.134;5.596;2022-08-01T09:23:44;21.60;99.90
19206;DHT22;59358;52.134;5.596;2022-08-01T09:26:13;21.60;99.90
19206;DHT22;59358;52.134;5.596;2022-08-01T09:28:41;21.60;99.90
19206;DHT22;59358;52.134;5.596;2022-08-01T09:31:09;21.60;99.90
19206;DHT22;59358;52.134;5.596;2022-08-01T09:33:48;21.70;99.90
19206;DHT22;59358;52.134;5.596;2022-08-01T09:36:17;21.60;99.90
19206;DHT22;59358;52.134;5.596;2022-08-01T09:38:44;21.80;99.90
19206;DHT22;59358;52.134;5.596;2022-08-01T09:41:11;21.80;99.90
19206;DHT22;59358;52.134;5.596;2022-08-01T09:43:38;22.10;99.90
19206;DHT22;59358;52.134;5.596;2022-08-01T09:46:09;22.40;99.90
19206;DHT22;59358;52.134;5.596;2022-08-01T09:48:37;22.70;99.90
19206;DHT22;59358;52.134;5.596;2022-08-01T09:51:05;22.80;99.90
19206;DHT22;59358;52.134;5.596;2022-08-01T09:53:45;22.60;99.90
19206;DHT22;59358;52.134;5.596;2022-08-01T09:56:12;22.50;99.90
19206;DHT22;59358;52.134;5.596;2022-08-01T09:58:49;22.40;99.90
19206;DHT22;59358;52.134;5.596;2022-08-01T10:01:17;22.30;99.90
19206;DHT22;59358;52.134;5.596;2022-08-01T10:03:46;22.20;99.90
19206;DHT22;59358;52.134;5.596;2022-08-01T10:06:20;22.10;99.90
19206;DHT22;59358;52.134;5.596;2022-08-01T10:08:48;22.20;99.90
19206;DHT22;59358;52.134;5.596;2022-08-01T10:11:15;22.30;99.90
19206;DHT22;59358;52.134;5.596;2022-08-01T10:13:43;22.40;99.90
19206;DHT22;59358;52.134;5.596;2022-08-01T10:16:12;22.50;99.90
19206;DHT22;59358;52.134;5.596;2022-08-01T10:18:41;22.70;99.90
19206;DHT22;59358;52.134;5.596;2022-08-01T10:21:09;22.90;99.90
19206;DHT22;59358;52.134;5.596;2022-08-01T10:23:37;22.80;99.90
19206;DHT22;59358;52.134;5.596;2022-08-01T10:26:07;23.00;99.90
19206;DHT22;59358;52.134;5.596;2022-08-01T10:28:35;23.20;99.90
19206;DHT22;59358;52.134;5.596;2022-08-01T10:31:02;23.20;99.90
19206;DHT22;59358;52.134;5.596;2022-08-01T10:33:30;23.30;99.90
19206;DHT22;59358;52.134;5.596;2022-08-01T10:35:57;23.60;99.90
19206;DHT22;59358;52.134;5.596;2022-08-01T10:38:23;23.90;99.90
19206;DHT22;59358;52.134;5.596;2022-08-01T10:40:51;23.80;99.90
19206;DHT22;59358;52.134;5.596;2022-08-01T10:43:20;23.80;99.90
19206;DHT22;59358;52.134;5.596;2022-08-01T10:45:47;24.10;99.90
19206;DHT22;59358;52.134;5.596;2022-08-01T10:48:18;24.10;99.90
19206;DHT22;59358;52.134;5.596;2022-08-01T10:50:48;24.20;99.90
19206;DHT22;59358;52.134;5.596;2022-08-01T10:53:17;24.40;99.90
19206;DHT22;59358;52.134;5.596;2022-08-01T10:55:51;24.60;99.90
19206;DHT22;59358;52.134;5.596;2022-08-01T10:58:27;24.60;99.90
19206;DHT22;59358;52.134;5.596;2022-08-01T11:01:13;24.90;99.90
19206;DHT22;59358;52.134;5.596;2022-08-01T11:03:40;24.80;99.90
19206;DHT22;59358;52.134;5.596;2022-08-01T11:06:16;24.70;99.90
19206;DHT22;59358;52.134;5.596;2022-08-01T11:08:51;24.60;99.90
19206;DHT22;59358;52.134;5.596;2022-08-01T11:11:19;24.50;99.90
19206;DHT22;59358;52.134;5.596;2022-08-01T11:14:04;24.30;99.90
19206;DHT22;59358;52.134;5.596;2022-08-01T11:16:36;24.30;99.90
19206;DHT22;59358;52.134;5.596;2022-08-01T11:19:03;24.40;99.90
19206;DHT22;59358;52.134;5.596;2022-08-01T11:21:59;24.50;99.90
19206;DHT22;59358;52.134;5.596;2022-08-01T11:24:55;24.30;99.90
19206;DHT22;59358;52.134;5.596;2022-08-01T11:27:27;24.50;99.90
19206;DHT22;59358;52.134;5.596;2022-08-01T11:30:24;24.50;99.90
19206;DHT22;59358;52.134;5.596;2022-08-01T11:32:53;24.40;99.90
19206;DHT22;59358;52.134;5.596;2022-08-01T11:35:21;24.20;99.90
19206;DHT22;59358;52.134;5.596;2022-08-01T11:37:50;24.30;99.90
19206;DHT22;59358;52.134;5.596;2022-08-01T11:40:20;24.40;99.90
19206;DHT22;59358;52.134;5.596;2022-08-01T11:42:48;24.70;99.90
19206;DHT22;59358;52.134;5.596;2022-08-01T11:45:15;24.60;99.90
19206;DHT22;59358;52.134;5.596;2022-08-01T11:47:48;24.90;99.90
19206;DHT22;59358;52.134;5.596;2022-08-01T11:50:35;24.80;99.90
19206;DHT22;59358;52.134;5.596;2022-08-01T11:53:04;24.80;99.90
19206;DHT22;59358;52.134;5.596;2022-08-01T11:55:32;24.50;99.90
19206;DHT22;59358;52.134;5.596;2022-08-01T11:58:01;24.50;99.90
19206;DHT22;59358;52.134;5.596;2022-08-01T12:00:28;24.70;99.90
19206;DHT22;59358;52.134;5.596;2022-08-01T12:02:59;24.60;99.90
19206;DHT22;59358;52.134;5.596;2022-08-01T12:05:26;24.60;99.90
19206;DHT22;59358;52.134;5.596;2022-08-01T12:07:54;24.80;99.90
19206;DHT22;59358;52.134;5.596;2022-08-01T12:10:23;24.60;99.90
19206;DHT22;59358;52.134;5.596;2022-08-01T12:12:52;25.00;99.90
19206;DHT22;59358;52.134;5.596;2022-08-01T12:15:20;25.30;99.90
19206;DHT22;59358;52.134;5.596;2022-08-01T12:17:49;25.10;99.90
19206;DHT22;59358;52.134;5.596;2022-08-01T12:20:21;24.80;99.90
19206;DHT22;59358;52.134;5.596;2022-08-01T12:22:52;24.60;99.90
19206;DHT22;59358;52.134;5.596;2022-08-01T12:25:19;24.60;99.90
19206;DHT22;59358;52.134;5.596;2022-08-01T12:27:47;24.80;99.90
19206;DHT22;59358;52.134;5.596;2022-08-01T12:30:15;24.90;99.90
19206;DHT22;59358;52.134;5.596;2022-08-01T12:32:44;25.20;98.60
19206;DHT22;59358;52.134;5.596;2022-08-01T12:35:13;25.40;97.90
19206;DHT22;59358;52.134;5.596;2022-08-01T12:37:43;25.50;97.20
19206;DHT22;59358;52.134;5.596;2022-08-01T12:40:12;25.40;97.30
19206;DHT22;59358;52.134;5.596;2022-08-01T12:42:40;25.30;97.40
19206;DHT22;59358;52.134;5.596;2022-08-01T12:45:09;25.10;96.40
19206;DHT22;59358;52.134;5.596;2022-08-01T12:47:37;25.10;96.30
19206;DHT22;59358;52.134;5.596;2022-08-01T12:50:06;25.10;97.80
19206;DHT22;59358;52.134;5.596;2022-08-01T12:52:34;25.20;96.80
19206;DHT22;59358;52.134;5.596;2022-08-01T12:55:08;25.20;93.20
19206;DHT22;59358;52.134;5.596;2022-08-01T12:57:37;25.00;93.50
19206;DHT22;59358;52.134;5.596;2022-08-01T13:00:06;25.00;93.20
19206;DHT22;59358;52.134;5.596;2022-08-01T13:02:34;24.90;95.20
19206;DHT22;59358;52.134;5.596;2022-08-01T13:05:01;25.10;93.00
19206;DHT22;59358;52.134;5.596;2022-08-01T13:07:36;25.50;92.00
19206;DHT22;59358;52.134;5.596;2022-08-01T13:10:04;25.80;92.80
19206;DHT22;59358;52.134;5.596;2022-08-01T13:12:32;26.00;93.80
19206;DHT22;59358;52.134;5.596;2022-08-01T13:14:59;26.10;92.60
19206;DHT22;59358;52.134;5.596;2022-08-01T13:17:32;26.40;92.40
19206;DHT22;59358;52.134;5.596;2022-08-01T13:20:01;26.30;92.50
19206;DHT22;59358;52.134;5.596;2022-08-01T13:22:32;26.40;92.00
19206;DHT22;59358;52.134;5.596;2022-08-01T13:25:11;26.30;92.60
19206;DHT22;59358;52.134;5.596;2022-08-01T13:27:38;26.20;91.50
19206;DHT22;59358;52.134;5.596;2022-08-01T13:30:14;26.30;91.60
19206;DHT22;59358;52.134;5.596;2022-08-01T13:32:41;26.40;91.60
19206;DHT22;59358;52.134;5.596;2022-08-01T13:35:10;26.40;91.40
19206;DHT22;59358;52.134;5.596;2022-08-01T13:37:39;26.40;89.80
19206;DHT22;59358;52.134;5.596;2022-08-01T13:40:08;26.20;90.10
19206;DHT22;59358;52.134;5.596;2022-08-01T13:42:39;25.90;90.90
19206;DHT22;59358;52.134;5.596;2022-08-01T13:45:07;25.70;92.00
19206;DHT22;59358;52.134;5.596;2022-08-01T13:47:36;25.50;92.80
19206;DHT22;59358;52.134;5.596;2022-08-01T13:50:04;25.70;92.30
19206;DHT22;59358;52.134;5.596;2022-08-01T13:52:31;25.70;92.30
19206;DHT22;59358;52.134;5.596;2022-08-01T13:54:58;25.80;92.60
19206;DHT22;59358;52.134;5.596;2022-08-01T13:57:25;25.60;93.80
19206;DHT22;59358;52.134;5.596;2022-08-01T13:59:53;25.90;94.80
19206;DHT22;59358;52.134;5.596;2022-08-01T14:02:20;26.00;92.60
19206;DHT22;59358;52.134;5.596;2022-08-01T14:04:47;26.40;92.10
19206;DHT22;59358;52.134;5.596;2022-08-01T14:07:13;26.00;92.20
19206;DHT22;59358;52.134;5.596;2022-08-01T14:09:40;25.90;93.00
19206;DHT22;59358;52.134;5.596;2022-08-01T14:12:07;26.00;93.20
19206;DHT22;59358;52.134;5.596;2022-08-01T14:14:34;26.40;93.30
19206;DHT22;59358;52.134;5.596;2022-08-01T14:17:03;26.70;93.10
19206;DHT22;59358;52.134;5.596;2022-08-01T14:19:29;27.10;92.30
19206;DHT22;59358;52.134;5.596;2022-08-01T14:21:58;27.30;91.90
19206;DHT22;59358;52.134;5.596;2022-08-01T14:24:25;27.20;91.90
19206;DHT22;59358;52.134;5.596;2022-08-01T14:26:52;27.10;91.50
19206;DHT22;59358;52.134;5.596;2022-08-01T14:29:19;26.90;91.60
19206;DHT22;59358;52.134;5.596;2022-08-01T14:31:45;26.80;90.90
19206;DHT22;59358;52.134;5.596;2022-08-01T14:34:14;26.70;90.70
19206;DHT22;59358;52.134;5.596;2022-08-01T14:36:41;26.60;91.20
19206;DHT22;59358;52.134;5.596;2022-08-01T14:39:10;26.70;88.00
19206;DHT22;59358;52.134;5.596;2022-08-01T14:41:38;26.70;88.60
19206;DHT22;59358;52.134;5.596;2022-08-01T14:44:04;26.90;85.50
19206;DHT22;59358;52.134;5.596;2022-08-01T14:46:31;26.60;86.90
19206;DHT22;59358;52.134;5.596;2022-08-01T14:48:58;26.80;87.50
19206;DHT22;59358;52.134;5.596;2022-08-01T14:51:26;26.80;86.80
19206;DHT22;59358;52.134;5.596;2022-08-01T14:53:53;27.10;86.60
19206;DHT22;59358;52.134;5.596;2022-08-01T14:56:19;27.10;84.70
19206;DHT22;59358;52.134;5.596;2022-08-01T14:58:46;27.40;84.30
19206;DHT22;59358;52.134;5.596;2022-08-01T15:01:13;27.90;82.90
19206;DHT22;59358;52.134;5.596;2022-08-01T15:03:40;28.10;81.30
19206;DHT22;59358;52.134;5.596;2022-08-01T15:06:07;27.90;82.80
19206;DHT22;59358;52.134;5.596;2022-08-01T15:08:39;28.20;83.50
19206;DHT22;59358;52.134;5.596;2022-08-01T15:11:06;28.80;81.80
19206;DHT22;59358;52.134;5.596;2022-08-01T15:13:34;29.30;82.20
19206;DHT22;59358;52.134;5.596;2022-08-01T15:16:00;29.60;82.10
19206;DHT22;59358;52.134;5.596;2022-08-01T15:18:27;29.60;80.50
19206;DHT22;59358;52.134;5.596;2022-08-01T15:20:55;29.60;79.80
19206;DHT22;59358;52.134;5.596;2022-08-01T15:23:22;29.60;80.30
19206;DHT22;59358;52.134;5.596;2022-08-01T15:25:50;30.40;79.70
19206;DHT22;59358;52.134;5.596;2022-08-01T15:28:17;30.60;76.20
19206;DHT22;59358;52.134;5.596;2022-08-01T15:30:45;31.20;76.30
19206;DHT22;59358;52.134;5.596;2022-08-01T15:33:11;30.80;72.80
19206;DHT22;59358;52.134;5.596;2022-08-01T15:35:39;30.10;75.30
19206;DHT22;59358;52.134;5.596;2022-08-01T15:38:06;30.60;73.80
19206;DHT22;59358;52.134;5.596;2022-08-01T15:40:33;31.30;74.20